Time;durP1;ratioP1;P1;durP2;ratioP2;P2;SDS_P1;SDS_P2;PMS_P1;PMS_P2;Temp;Humidity;BMP_temperature;BMP_pressure;BME280_temperature;BME280_humidity;BME280_pressure;Samples;Min_cycle;Max_cycle;Signal;HPM_P1;HPM_P2
2022/09/14 00:00:28;;;;;;;14.40;12.70;;;;;;;14.80;84.01;99433.58;3410892;81;21345;-83
2022/09/14 00:05:19;;;;;;;13.98;12.68;;;;;;;14.81;84.07;99437.93;3376170;82;21004;-83
2022/09/14 00:10:10;;;;;;;15.20;13.75;;;;;;;14.82;84.22;99442.25;3393819;80;20959;-86
2022/09/14 00:15:01;;;;;;;11.28;10.23;;;;;;;14.82;84.45;99450.56;3516059;79;21132;-83
2022/09/14 00:19:52;;;;;;;11.15;10.13;;;;;;;14.83;84.77;99453.14;3482359;78;21069;-87
2022/09/14 00:24:44;;;;;;;7.30;6.70;;;;;;;14.84;84.97;99453.58;3514905;80;22130;-87
2022/09/14 00:29:35;;;;;;;5.65;5.15;;;;;;;14.84;84.93;99450.08;3533038;78;21116;-87
2022/09/14 00:34:27;;;;;;;4.50;3.95;;;;;;;14.81;84.97;99428.77;3511194;80;21037;-86
2022/09/14 00:39:22;;;;;;;5.33;3.85;;;;;;;14.79;84.79;99441.03;3507118;80;21465;-86
2022/09/14 00:44:19;;;;;;;3.72;3.42;;;;;;;14.75;84.65;99443.27;3494804;79;20946;-86
2022/09/14 00:49:24;;;;;;;4.08;3.70;;;;;;;14.67;84.42;99443.89;3532075;79;21011;-86
2022/09/14 00:54:16;;;;;;;2.92;2.72;;;;;;;14.55;84.34;99444.95;3542535;80;20932;-86
2022/09/14 00:59:18;;;;;;;3.37;3.08;;;;;;;14.44;84.24;99445.16;3518084;80;21441;-86
2022/09/14 01:04:09;;;;;;;3.47;3.17;;;;;;;14.32;84.16;99441.47;3504358;80;20990;-86
2022/09/14 01:09:27;;;;;;;3.87;3.42;;;;;;;14.23;84.10;99433.80;3514887;79;20971;-85
2022/09/14 01:14:47;;;;;;;4.03;3.60;;;;;;;14.13;83.92;99443.58;3548897;80;20917;-86
2022/09/14 01:19:56;;;;;;;3.92;3.55;;;;;;;14.00;83.87;99449.44;3523682;80;20986;-86
2022/09/14 01:24:58;;;;;;;5.75;4.42;;;;;;;13.88;84.03;99444.00;3537181;80;20924;-85
2022/09/14 01:30:04;;;;;;;4.47;4.08;;;;;;;13.84;84.40;99442.75;3500916;80;21046;-86
2022/09/14 01:35:06;;;;;;;4.92;4.53;;;;;;;13.83;84.67;99437.13;3500323;80;20955;-85
2022/09/14 01:40:21;;;;;;;4.55;4.20;;;;;;;13.83;84.59;99434.06;3515154;80;22071;-85
2022/09/14 01:45:17;;;;;;;3.92;3.65;;;;;;;13.83;84.58;99431.90;3349014;84;21056;-85
2022/09/14 01:50:26;;;;;;;5.33;4.92;;;;;;;13.81;84.45;99434.98;3304328;83;21039;-85
2022/09/14 01:55:23;;;;;;;4.75;4.35;;;;;;;13.77;84.39;99430.68;3370433;83;20970;-85
2022/09/14 02:00:18;;;;;;;4.75;4.35;;;;;;;13.75;84.41;99420.70;3327297;83;21028;-85
2022/09/14 02:05:29;;;;;;;5.45;4.85;;;;;;;13.72;84.39;99412.48;3361467;83;23220;-85
2022/09/14 02:10:23;;;;;;;6.25;5.75;;;;;;;13.66;84.45;99416.49;3365388;83;20944;-85
2022/09/14 02:15:15;;;;;;;6.10;5.25;;;;;;;13.56;84.56;99406.66;3325150;83;21012;-85
2022/09/14 02:20:11;;;;;;;4.85;4.47;;;;;;;13.55;84.77;99406.22;3390152;80;20951;-85
2022/09/14 02:25:04;;;;;;;6.20;5.45;;;;;;;13.50;84.48;99401.09;3516796;79;20877;-85
2022/09/14 02:29:55;;;;;;;6.42;5.83;;;;;;;13.49;84.59;99404.58;3496831;80;21050;-85
2022/09/14 02:35:13;;;;;;;5.60;5.10;;;;;;;13.53;84.88;99405.39;3533822;80;21434;-85
2022/09/14 02:40:26;;;;;;;6.72;6.12;;;;;;;13.57;84.96;99405.75;3473393;80;20964;-85
2022/09/14 02:45:26;;;;;;;9.15;8.25;;;;;;;13.58;85.04;99404.88;3489700;80;21007;-85
2022/09/14 02:50:34;;;;;;;7.17;6.37;;;;;;;13.63;85.26;99405.67;3513078;80;20971;-85
2022/09/14 02:55:30;;;;;;;6.62;6.03;;;;;;;13.66;85.24;99407.34;3493371;79;21910;-85
2022/09/14 03:00:21;;;;;;;5.75;5.25;;;;;;;13.62;85.01;99409.15;3511571;80;20928;-85
2022/09/14 03:05:13;;;;;;;7.30;6.60;;;;;;;13.58;85.01;99399.66;3447257;79;21131;-85
2022/09/14 03:10:05;;;;;;;9.28;8.45;;;;;;;13.56;84.96;99403.16;3453006;80;20983;-85
2022/09/14 03:14:56;;;;;;;12.93;9.35;;;;;;;13.58;85.21;99405.33;3454454;80;20952;-86
2022/09/14 03:19:47;;;;;;;14.68;12.18;;;;;;;13.61;85.41;99408.75;3510018;80;20979;-85
2022/09/14 03:24:38;;;;;;;17.60;15.43;;;;;;;13.62;85.69;99416.98;3489655;80;21465;-85
2022/09/14 03:29:29;;;;;;;16.75;14.65;;;;;;;13.67;86.16;99411.70;3473963;80;20955;-85
2022/09/14 03:34:21;;;;;;;15.50;13.50;;;;;;;13.70;86.19;99410.35;3513110;79;20924;-85
2022/09/14 03:39:12;;;;;;;14.85;13.30;;;;;;;13.71;86.16;99418.13;3487137;80;21260;-85
2022/09/14 03:44:03;;;;;;;15.23;13.08;;;;;;;13.73;86.23;99412.47;3457835;79;20966;-85
2022/09/14 03:48:57;;;;;;;11.00;8.63;;;;;;;13.70;86.17;99402.06;3498475;80;20995;-85
2022/09/14 03:53:49;;;;;;;9.03;8.13;;;;;;;13.61;85.75;99403.53;3523100;80;21058;-85
2022/09/14 03:58:40;;;;;;;11.78;10.58;;;;;;;13.56;85.70;99400.13;3470316;80;20941;-85
2022/09/14 04:03:32;;;;;;;10.23;9.25;;;;;;;13.53;85.78;99389.72;3455913;80;21016;-85
2022/09/14 04:08:23;;;;;;;12.45;10.72;;;;;;;13.49;85.74;99391.52;3518413;80;21131;-86
2022/09/14 04:13:14;;;;;;;14.30;12.88;;;;;;;13.47;85.92;99395.05;3491949;79;20998;-85
2022/09/14 04:18:06;;;;;;;14.83;13.03;;;;;;;13.47;85.96;99392.44;3483736;80;21074;-85
2022/09/14 04:22:57;;;;;;;15.93;13.95;;;;;;;13.47;85.85;99395.91;3495704;80;21349;-83
2022/09/14 04:27:49;;;;;;;18.95;15.88;;;;;;;13.53;86.07;99396.25;3472295;80;21576;-86
2022/09/14 04:32:40;;;;;;;15.53;13.85;;;;;;;13.58;86.43;99394.42;3503395;80;22020;-86
2022/09/14 04:37:32;;;;;;;21.68;17.67;;;;;;;13.62;86.22;99397.84;3514670;78;20945;-86
2022/09/14 04:42:23;;;;;;;19.37;16.40;;;;;;;13.63;86.23;99395.64;3490361;79;21042;-86
2022/09/14 04:47:15;;;;;;;18.02;15.85;;;;;;;13.63;86.13;99400.44;3523676;79;20988;-87
2022/09/14 04:52:06;;;;;;;18.45;13.85;;;;;;;13.66;86.25;99396.45;3489674;80;21002;-86
2022/09/14 04:56:57;;;;;;;20.65;18.12;;;;;;;13.70;86.17;99399.45;3492183;80;21324;-87
2022/09/14 05:01:49;;;;;;;20.17;18.15;;;;;;;13.78;86.27;99398.00;3505691;79;21014;-87
2022/09/14 05:06:43;;;;;;;21.73;19.48;;;;;;;13.87;86.25;99396.98;3524333;80;21145;-87
2022/09/14 05:11:36;;;;;;;19.70;17.62;;;;;;;13.96;86.29;99398.13;3481359;80;21007;-86
2022/09/14 05:16:34;;;;;;;22.13;18.75;;;;;;;14.02;86.19;99399.34;3500894;80;20994;-87
2022/09/14 05:21:26;;;;;;;22.25;19.85;;;;;;;14.19;86.01;99400.77;3461666;81;21015;-85
2022/09/14 05:26:18;;;;;;;21.40;19.27;;;;;;;14.34;86.19;99401.77;3443264;81;20943;-86
2022/09/14 05:31:11;;;;;;;21.45;19.30;;;;;;;14.44;86.24;99403.77;3408863;80;20991;-86
2022/09/14 05:36:06;;;;;;;22.70;20.30;;;;;;;14.59;86.16;99400.02;3440651;81;21003;-86
2022/09/14 05:40:57;;;;;;;21.23;19.02;;;;;;;14.73;86.00;99395.35;3469423;80;20980;-86
2022/09/14 05:45:49;;;;;;;21.70;19.50;;;;;;;14.76;86.07;99386.14;3466131;80;21085;-86
2022/09/14 05:50:40;;;;;;;20.88;18.77;;;;;;;14.85;86.04;99382.02;3466632;80;20999;-87
2022/09/14 05:55:31;;;;;;;21.42;19.15;;;;;;;14.91;85.90;99382.77;3435934;81;20959;-85
2022/09/14 06:00:23;;;;;;;19.67;17.62;;;;;;;15.14;85.71;99384.88;3478192;81;20968;-82
2022/09/14 06:05:15;;;;;;;20.68;18.57;;;;;;;15.23;85.68;99390.75;3474170;81;21014;-84
2022/09/14 06:10:07;;;;;;;18.02;16.25;;;;;;;15.31;85.55;99384.05;3474677;79;21140;-86
2022/09/14 06:14:58;;;;;;;20.23;18.23;;;;;;;15.46;85.26;99381.50;3556137;79;21529;-84
2022/09/14 06:19:49;;;;;;;19.37;17.32;;;;;;;15.62;85.16;99373.66;3558887;78;20983;-92
2022/09/14 06:24:40;;;;;;;17.98;16.20;;;;;;;15.71;85.26;99376.97;3510379;79;20881;-96
2022/09/14 06:55:08;;;;;;;21.27;18.07;;;;;;;15.97;85.70;99395.96;3383235;78;20960;-96
2022/09/14 07:00:03;;;;;;;21.42;17.75;;;;;;;16.01;85.42;99401.09;3414037;82;22907;-96
2022/09/14 07:04:54;;;;;;;23.38;20.88;;;;;;;15.94;85.20;99396.06;3501882;77;20981;-96
2022/09/14 07:09:46;;;;;;;21.65;19.32;;;;;;;16.00;85.41;99413.78;3512446;80;20942;-96
2022/09/14 07:14:37;;;;;;;24.07;20.92;;;;;;;16.22;84.62;99411.05;3485321;81;20985;-94
2022/09/14 07:19:28;;;;;;;21.65;19.35;;;;;;;16.15;84.66;99415.59;3480469;80;20883;-94
2022/09/14 07:24:20;;;;;;;22.60;20.40;;;;;;;16.15;84.41;99422.14;3543159;79;21334;-95
2022/09/14 07:29:18;;;;;;;23.67;18.95;;;;;;;16.01;84.46;99432.55;3433149;80;20973;-94
2022/09/14 07:34:11;;;;;;;27.13;22.58;;;;;;;15.99;84.68;99443.53;3467292;80;20919;-90
2022/09/14 07:39:06;;;;;;;22.60;20.08;;;;;;;15.96;84.55;99442.75;3495965;80;21418;-94
2022/09/14 07:43:59;;;;;;;23.50;21.05;;;;;;;16.00;84.76;99439.14;3502885;80;21020;-89
2022/09/14 07:49:00;;;;;;;19.75;17.67;;;;;;;16.06;84.18;99434.19;3481079;79;21931;-90
2022/09/14 07:53:51;;;;;;;22.82;20.50;;;;;;;16.42;83.51;99426.23;3519425;80;20973;-88
2022/09/14 07:58:44;;;;;;;19.20;17.12;;;;;;;16.51;82.94;99422.07;3481467;80;20922;-90
2022/09/14 08:03:35;;;;;;;17.48;15.32;;;;;;;16.62;82.89;99423.93;3466676;80;21424;-87
2022/09/14 08:08:39;;;;;;;16.37;14.55;;;;;;;16.89;82.29;99413.57;3502149;78;20967;-93
2022/09/14 08:13:31;;;;;;;15.03;13.53;;;;;;;17.00;81.62;99419.34;3511959;79;20884;-92
2022/09/14 08:18:23;;;;;;;14.90;12.88;;;;;;;17.32;81.18;99418.82;3528052;79;21140;-87
2022/09/14 08:23:14;;;;;;;13.05;11.85;;;;;;;17.62;79.92;99420.07;3484002;79;20971;-88
2022/09/14 08:28:04;;;;;;;16.93;11.40;;;;;;;17.73;79.08;99414.00;3473331;78;20982;-96
2022/09/14 08:32:56;;;;;;;11.90;10.70;;;;;;;17.97;79.17;99422.00;3496692;79;20985;-92
2022/09/14 08:37:47;;;;;;;11.08;9.73;;;;;;;18.21;79.09;99425.10;3496495;80;20897;-89
2022/09/14 08:42:39;;;;;;;10.90;8.40;;;;;;;17.94;77.24;99427.35;3479972;78;20954;-92
2022/09/14 08:47:37;;;;;;;8.95;7.87;;;;;;;18.99;74.57;99436.34;3504517;79;21001;-87
2022/09/14 08:52:42;;;;;;;8.35;7.53;;;;;;;18.69;74.80;99416.82;3536394;79;20939;-90
2022/09/14 08:57:59;;;;;;;10.45;7.50;;;;;;;18.53;74.21;99410.38;3479040;80;21623;-86
2022/09/14 09:03:13;;;;;;;8.50;5.37;;;;;;;18.55;75.06;99409.89;3498936;79;20978;-88
2022/09/14 09:08:31;;;;;;;7.95;7.05;;;;;;;18.89;74.51;99411.27;3487726;80;20919;-86
2022/09/14 09:13:27;;;;;;;8.50;6.47;;;;;;;18.85;73.72;99413.16;3532621;80;21019;-88
2022/09/14 09:18:39;;;;;;;10.23;7.58;;;;;;;18.56;73.62;99419.02;3450309;80;28943;-84
2022/09/14 09:23:32;;;;;;;8.35;6.92;;;;;;;18.11;74.20;99417.13;3502270;80;20935;-84
2022/09/14 09:28:27;;;;;;;11.43;6.70;;;;;;;18.13;73.50;99419.70;3487616;81;21034;-82
2022/09/14 09:33:25;;;;;;;9.65;6.92;;;;;;;18.27;73.58;99416.98;3456733;80;20973;-92
2022/09/14 09:38:24;;;;;;;6.50;5.17;;;;;;;19.11;73.20;99400.78;3503631;79;21504;-94
2022/09/14 09:43:18;;;;;;;6.72;5.45;;;;;;;19.41;71.38;99398.23;3480738;80;21468;-92
2022/09/14 09:48:10;;;;;;;9.88;5.65;;;;;;;19.40;70.81;99404.42;3466073;80;20916;-93
2022/09/14 09:53:01;;;;;;;9.60;5.08;;;;;;;19.19;71.02;99402.64;3480611;80;21629;-96
2022/09/14 09:57:53;;;;;;;9.75;5.10;;;;;;;18.99;71.14;99406.94;3421751;80;21009;-90
2022/09/14 10:02:45;;;;;;;4.80;3.33;;;;;;;18.79;70.81;99409.42;3386731;80;20999;-89
2022/09/14 10:07:54;;;;;;;5.80;3.35;;;;;;;19.74;69.80;99403.07;3539532;77;20993;-94
2022/09/14 10:12:53;;;;;;;4.35;3.10;;;;;;;19.68;68.43;99399.35;3610743;77;21436;-90
2022/09/14 10:18:12;;;;;;;4.72;3.33;;;;;;;19.25;67.30;99409.00;3585055;77;21109;-95
2022/09/14 10:23:23;;;;;;;5.17;3.45;;;;;;;19.28;67.26;99409.33;3585562;77;20911;-91
2022/09/14 10:28:29;;;;;;;4.83;3.90;;;;;;;23.37;60.44;99407.48;3584330;77;20985;-92
2022/09/14 10:33:20;;;;;;;4.20;3.53;;;;;;;24.73;59.24;99402.55;3601870;77;20875;-86
2022/09/14 10:38:35;;;;;;;4.67;3.52;;;;;;;25.95;57.70;99388.49;3525405;77;20982;-90
2022/09/14 10:44:02;;;;;;;4.75;3.83;;;;;;;26.60;55.81;99399.55;3587502;77;22457;-90
2022/09/14 10:49:21;;;;;;;4.03;2.98;;;;;;;26.63;55.12;99396.22;3583260;77;20985;-88
2022/09/14 10:55:04;;;;;;;4.33;2.83;;;;;;;28.29;52.86;99394.27;3559478;78;21001;-87
2022/09/14 11:00:01;;;;;;;5.33;2.55;;;;;;;29.27;51.73;99390.48;3612979;77;21473;-87
2022/09/14 11:05:15;;;;;;;5.83;3.12;;;;;;;30.23;48.19;99393.23;3628021;77;20935;-88
2022/09/14 11:10:45;;;;;;;3.20;2.98;;;;;;;30.24;46.98;99389.55;3392019;83;21881;-87
2022/09/14 11:16:06;;;;;;;3.42;2.60;;;;;;;30.31;45.37;99388.04;3382149;83;21523;-87
2022/09/14 11:21:17;;;;;;;3.08;2.25;;;;;;;30.39;46.86;99387.42;3467423;81;21036;-90
2022/09/14 11:26:30;;;;;;;3.42;2.20;;;;;;;28.10;46.69;99383.67;3449453;81;20984;-90
2022/09/14 11:31:36;;;;;;;2.25;2.05;;;;;;;25.74;47.87;99386.77;3383338;83;20933;-88
2022/09/14 11:36:36;;;;;;;4.40;2.58;;;;;;;24.26;48.12;99386.36;3463441;81;21305;-90
2022/09/14 11:41:44;;;;;;;4.30;2.30;;;;;;;23.89;50.20;99377.94;3475728;81;20995;-89
2022/09/14 11:46:41;;;;;;;2.98;2.50;;;;;;;22.91;50.40;99376.44;3591080;76;21496;-88
2022/09/14 11:51:49;;;;;;;3.47;2.85;;;;;;;22.85;52.00;99371.45;3632965;76;21105;-89
2022/09/14 11:56:42;;;;;;;3.90;2.30;;;;;;;22.49;51.97;99377.83;3627123;76;21193;-88
2022/09/14 12:01:39;;;;;;;2.30;2.08;;;;;;;21.78;53.10;99380.61;3560675;77;21472;-85
2022/09/14 12:06:39;;;;;;;2.92;2.22;;;;;;;21.69;53.23;99368.70;3557708;76;20982;-88
2022/09/14 12:11:33;;;;;;;4.55;2.40;;;;;;;21.63;53.84;99379.12;3634312;77;20899;-90
2022/09/14 12:16:25;;;;;;;2.70;2.30;;;;;;;22.25;53.53;99385.26;3571306;77;20996;-91
2022/09/14 12:21:24;;;;;;;6.83;2.33;;;;;;;22.50;52.87;99377.34;3627523;77;20950;-95
2022/09/14 12:26:24;;;;;;;4.47;2.60;;;;;;;22.79;52.66;99377.95;3640353;76;21426;-91
2022/09/14 12:31:48;;;;;;;3.25;2.62;;;;;;;23.17;53.22;99359.56;3595106;77;20980;-94
2022/09/14 12:36:44;;;;;;;3.02;2.22;;;;;;;22.90;51.88;99364.59;3635331;76;21592;-91
2022/09/14 12:41:47;;;;;;;2.92;2.50;;;;;;;22.59;52.65;99368.90;3611351;77;20989;-89
2022/09/14 12:46:39;;;;;;;4.28;2.50;;;;;;;22.62;53.14;99370.06;3610946;75;21085;-94
2022/09/14 12:51:46;;;;;;;3.55;2.33;;;;;;;22.73;53.35;99365.06;3605579;77;22452;-93
2022/09/14 12:57:00;;;;;;;3.90;2.30;;;;;;;22.38;53.02;99370.45;3602182;77;21064;-94
2022/09/14 13:02:30;;;;;;;2.12;1.90;;;;;;;22.84;52.58;99367.97;3614487;77;21463;-89
2022/09/14 13:07:25;;;;;;;3.25;2.35;;;;;;;23.24;52.60;99369.36;3657438;77;21497;-92
2022/09/14 13:12:28;;;;;;;2.75;2.02;;;;;;;23.37;51.63;99355.77;3584170;75;21013;-92
2022/09/14 13:17:20;;;;;;;5.33;2.60;;;;;;;22.83;52.13;99361.42;3652653;76;21136;-95
2022/09/14 13:22:24;;;;;;;4.50;2.42;;;;;;;22.44;52.45;99364.81;3616696;76;21027;-89
2022/09/14 13:27:32;;;;;;;4.03;2.40;;;;;;;22.35;53.12;99356.05;3498165;77;20930;-92
2022/09/14 13:32:27;;;;;;;5.90;2.05;;;;;;;22.48;53.30;99359.36;3557836;76;21021;-95
2022/09/14 13:37:20;;;;;;;3.47;1.80;;;;;;;22.66;52.53;99358.39;3561793;76;21997;-89
2022/09/14 13:42:12;;;;;;;4.22;1.98;;;;;;;23.03;51.57;99341.75;3546079;76;21388;-86
2022/09/14 13:47:05;;;;;;;3.85;2.10;;;;;;;22.85;50.16;99341.83;3540863;76;21555;-87
2022/09/14 13:52:24;;;;;;;2.15;1.90;;;;;;;22.25;50.85;99341.58;3565449;76;21018;-87
2022/09/14 13:57:20;;;;;;;4.22;2.00;;;;;;;21.59;51.35;99329.97;3553469;76;21659;-91
2022/09/14 14:02:12;;;;;;;4.42;2.47;;;;;;;21.26;51.99;99332.47;3575929;77;21806;-89
2022/09/14 14:07:21;;;;;;;2.70;2.10;;;;;;;21.08;52.81;99331.58;3528449;79;21472;-94
2022/09/14 14:12:28;;;;;;;5.30;2.45;;;;;;;20.83;52.35;99328.78;3570025;77;20977;-93
2022/09/14 14:17:28;;;;;;;2.00;1.80;;;;;;;20.71;53.15;99330.67;3582426;78;21610;-91
2022/09/14 14:22:27;;;;;;;2.33;2.05;;;;;;;20.50;52.83;99324.13;3513423;78;20948;-91
2022/09/14 14:27:33;;;;;;;3.33;2.10;;;;;;;20.39;53.55;99321.14;3504600;78;20946;-90
2022/09/14 14:32:24;;;;;;;4.45;2.05;;;;;;;20.25;53.94;99316.48;3532572;79;22252;-94
2022/09/14 14:37:15;;;;;;;4.70;2.47;;;;;;;20.29;54.64;99322.00;3610841;77;21547;-88
2022/09/14 14:42:09;;;;;;;6.80;2.22;;;;;;;20.63;54.47;99309.08;3609446;76;21228;-90
2022/09/14 14:47:00;;;;;;;2.92;2.50;;;;;;;20.95;54.27;99321.59;3587045;77;20933;-91
2022/09/14 14:51:52;;;;;;;3.83;2.05;;;;;;;21.28;53.66;99320.91;3600148;77;21138;-86
2022/09/14 14:56:47;;;;;;;3.15;1.85;;;;;;;21.58;54.01;99320.31;3650517;77;21325;-88
2022/09/14 15:01:38;;;;;;;3.20;1.80;;;;;;;21.42;53.40;99321.98;3529983;77;21448;-87
2022/09/14 15:06:29;;;;;;;6.75;1.90;;;;;;;21.12;52.87;99306.70;3546821;76;21295;-91
2022/09/14 15:11:22;;;;;;;3.95;1.90;;;;;;;20.59;53.22;99312.28;3592493;78;20978;-88
2022/09/14 15:16:14;;;;;;;3.05;1.85;;;;;;;20.14;53.56;99311.69;3568571;77;20973;-88
2022/09/14 15:21:05;;;;;;;2.40;1.92;;;;;;;19.96;54.74;99305.88;3537337;77;21707;-85
2022/09/14 15:25:56;;;;;;;3.35;2.30;;;;;;;19.94;55.21;99305.09;3606210;77;21198;-89
2022/09/14 15:30:48;;;;;;;8.93;2.22;;;;;;;19.95;55.14;99301.55;3548639;77;21584;-87
2022/09/14 15:35:39;;;;;;;2.40;2.20;;;;;;;19.79;55.55;99294.30;3574244;77;20947;-90
2022/09/14 15:40:31;;;;;;;4.92;2.00;;;;;;;19.64;56.16;99291.00;3548575;78;20968;-89
2022/09/14 15:45:22;;;;;;;6.80;1.98;;;;;;;19.47;56.14;99294.80;3525341;79;21450;-84
2022/09/14 15:50:13;;;;;;;3.90;2.62;;;;;;;19.25;56.12;99300.97;3556827;77;20915;-84
2022/09/14 15:55:07;;;;;;;4.50;2.50;;;;;;;19.07;56.90;99296.47;3578246;77;20985;-87
2022/09/14 15:59:58;;;;;;;4.58;2.40;;;;;;;18.85;57.83;99282.81;3613912;77;20962;-88
2022/09/14 16:04:50;;;;;;;2.55;1.80;;;;;;;18.65;58.68;99292.36;3638605;77;20962;-91
2022/09/14 16:09:42;;;;;;;4.37;2.22;;;;;;;18.46;59.53;99286.08;3553381;77;20915;-91
2022/09/14 16:14:34;;;;;;;5.70;2.87;;;;;;;18.27;60.31;99290.70;3621161;77;34768;-86
2022/09/14 16:19:26;;;;;;;4.37;2.10;;;;;;;18.08;61.04;99290.98;3589550;77;20950;-84
2022/09/14 16:24:19;;;;;;;4.50;2.75;;;;;;;17.90;61.57;99291.19;3529061;77;20954;-85
2022/09/14 16:29:13;;;;;;;3.92;2.10;;;;;;;17.71;61.92;99282.62;3475645;78;20923;-85
2022/09/14 16:34:16;;;;;;;5.53;2.02;;;;;;;17.58;62.33;99280.47;3594009;77;22395;-86
2022/09/14 16:39:12;;;;;;;4.25;2.25;;;;;;;17.42;62.77;99281.02;3595143;76;20954;-85
2022/09/14 16:44:04;;;;;;;4.33;2.17;;;;;;;17.27;62.97;99278.89;3582065;77;20949;-85
2022/09/14 16:48:57;;;;;;;3.22;2.30;;;;;;;17.10;63.40;99279.00;3525378;77;21516;-85
2022/09/14 16:53:50;;;;;;;2.87;2.05;;;;;;;16.94;63.69;99283.03;3483170;79;21087;-85
2022/09/14 16:58:44;;;;;;;5.45;2.62;;;;;;;16.80;63.97;99276.02;3495209;79;21481;-86
2022/09/14 17:03:36;;;;;;;6.22;2.27;;;;;;;16.67;64.22;99276.40;3595566;78;20970;-85
2022/09/14 17:08:28;;;;;;;6.62;2.67;;;;;;;16.53;64.46;99274.66;3519430;78;21496;-86
2022/09/14 17:13:19;;;;;;;4.47;2.47;;;;;;;16.43;65.16;99285.00;3563039;77;20953;-86
2022/09/14 17:18:10;;;;;;;6.28;3.10;;;;;;;16.31;65.50;99285.79;3562765;77;21369;-86
2022/09/14 17:23:01;;;;;;;4.55;2.33;;;;;;;16.21;65.81;99286.95;3495093;78;21917;-86
2022/09/14 17:27:52;;;;;;;5.60;3.27;;;;;;;16.09;65.82;99293.85;3591854;77;20985;-86
2022/09/14 17:32:43;;;;;;;4.03;2.42;;;;;;;15.94;66.28;99288.59;3552767;78;21409;-86
2022/09/14 17:37:34;;;;;;;3.58;2.90;;;;;;;15.90;66.87;99289.56;3594666;77;21186;-87
2022/09/14 17:42:26;;;;;;;5.25;2.50;;;;;;;15.85;67.41;99287.55;3529546;78;21469;-86
2022/09/14 17:47:17;;;;;;;8.98;3.47;;;;;;;15.76;67.51;99290.81;3540018;78;21393;-86
2022/09/14 17:52:08;;;;;;;4.60;2.58;;;;;;;15.70;67.86;99298.78;3603160;77;21111;-86
2022/09/14 17:56:59;;;;;;;8.15;5.67;;;;;;;15.62;68.28;99288.52;3544516;78;21002;-86
2022/09/14 18:01:51;;;;;;;11.40;7.57;;;;;;;15.51;68.53;99295.81;3548243;78;21017;-86
2022/09/14 18:06:46;;;;;;;10.68;8.53;;;;;;;15.44;68.86;99294.25;3543376;77;21178;-86
2022/09/14 18:11:38;;;;;;;8.15;6.85;;;;;;;15.36;69.01;99288.34;3566314;78;22225;-86
2022/09/14 18:16:29;;;;;;;8.85;5.90;;;;;;;15.29;69.33;99290.70;3532211;77;20950;-86
2022/09/14 18:21:21;;;;;;;7.55;4.80;;;;;;;15.19;69.46;99278.30;3556536;78;21002;-86
2022/09/14 18:26:12;;;;;;;5.20;4.70;;;;;;;15.10;69.67;99289.00;3575298;77;21033;-86
2022/09/14 18:31:08;;;;;;;7.50;4.33;;;;;;;15.00;69.71;99285.73;3514360;78;21026;-86
2022/09/14 18:36:00;;;;;;;5.00;3.33;;;;;;;14.93;69.79;99284.16;3508197;79;28204;-86
2022/09/14 18:40:54;;;;;;;7.80;3.65;;;;;;;14.80;69.96;99287.05;3455315;78;20958;-86
2022/09/14 18:45:46;;;;;;;5.25;3.60;;;;;;;14.73;70.23;99289.40;3571101;77;21025;-85
2022/09/14 18:50:39;;;;;;;4.80;3.98;;;;;;;14.68;70.59;99292.56;3563147;78;21467;-85
2022/09/14 18:55:32;;;;;;;5.37;3.35;;;;;;;14.67;70.76;99294.78;3542414;78;21566;-86
2022/09/14 19:00:24;;;;;;;4.03;3.47;;;;;;;14.65;70.97;99290.04;3592983;77;21977;-86
2022/09/14 19:05:15;;;;;;;5.28;3.62;;;;;;;14.61;71.18;99284.02;3565733;77;20911;-86
2022/09/14 19:10:08;;;;;;;8.15;4.80;;;;;;;14.59;71.43;99274.01;3599868;77;20939;-85
2022/09/14 19:14:59;;;;;;;8.08;4.42;;;;;;;14.55;71.54;99270.17;3582423;78;20938;-86
2022/09/14 19:19:51;;;;;;;6.97;4.75;;;;;;;14.49;71.51;99270.72;3631636;76;21053;-86
2022/09/14 19:24:43;;;;;;;5.35;4.30;;;;;;;14.44;71.75;99268.65;3554322;77;21012;-86
2022/09/14 19:29:34;;;;;;;4.97;4.05;;;;;;;14.37;71.96;99259.22;3590707;77;21476;-86
2022/09/14 19:34:27;;;;;;;10.28;6.78;;;;;;;14.30;72.10;99261.09;3526071;78;20967;-86
2022/09/14 19:39:19;;;;;;;9.43;6.58;;;;;;;14.21;72.31;99258.69;3624421;77;21365;-86
2022/09/14 19:44:12;;;;;;;15.30;10.03;;;;;;;14.15;72.64;99256.21;3590173;77;20898;-86
2022/09/14 19:49:05;;;;;;;13.50;8.25;;;;;;;14.13;72.77;99267.58;3634652;77;21580;-85
2022/09/14 19:53:59;;;;;;;9.88;7.03;;;;;;;14.13;72.98;99274.11;3588635;77;20950;-86
2022/09/14 19:58:53;;;;;;;8.43;5.83;;;;;;;14.09;73.11;99275.50;3585876;76;21010;-86
2022/09/14 20:03:46;;;;;;;8.50;5.72;;;;;;;14.08;73.27;99271.16;3592247;77;20970;-85
2022/09/14 20:08:38;;;;;;;11.83;6.08;;;;;;;14.05;73.41;99265.12;3604145;78;21014;-85
2022/09/14 20:13:29;;;;;;;5.05;4.50;;;;;;;14.04;73.56;99263.39;3518042;77;22087;-86
2022/09/14 20:18:21;;;;;;;6.35;4.80;;;;;;;14.03;73.62;99247.31;3523265;79;22032;-86
2022/09/14 20:23:11;;;;;;;5.17;3.92;;;;;;;14.03;73.86;99239.02;3559984;77;21042;-86
2022/09/14 20:28:03;;;;;;;4.57;3.87;;;;;;;13.96;73.78;99263.56;3576192;78;20925;-86
2022/09/14 20:32:54;;;;;;;4.37;3.60;;;;;;;13.94;73.97;99261.87;3512906;77;21114;-86
2022/09/14 20:37:45;;;;;;;4.83;3.60;;;;;;;13.89;74.16;99258.89;3534993;77;21871;-86
2022/09/14 20:42:36;;;;;;;4.97;3.80;;;;;;;13.89;74.22;99249.75;3531226;77;21495;-86
2022/09/14 20:47:28;;;;;;;4.78;3.65;;;;;;;13.87;74.21;99258.52;3512766;77;20992;-86
2022/09/14 20:52:19;;;;;;;4.78;3.37;;;;;;;13.83;74.46;99242.50;3579620;76;20971;-86
2022/09/14 20:57:10;;;;;;;4.40;4.00;;;;;;;13.81;74.58;99250.81;3551760;77;20897;-86
2022/09/14 21:02:01;;;;;;;5.78;4.33;;;;;;;13.79;74.56;99249.95;3500041;78;21224;-86
2022/09/14 21:06:55;;;;;;;7.08;4.53;;;;;;;13.76;74.64;99256.12;3577191;77;20983;-86
2022/09/14 21:11:47;;;;;;;4.67;4.28;;;;;;;13.73;74.73;99252.25;3541663;78;20944;-86
2022/09/14 21:16:44;;;;;;;8.95;4.75;;;;;;;13.67;74.83;99238.87;3491740;78;21045;-86
2022/09/14 21:21:36;;;;;;;7.72;5.25;;;;;;;13.66;75.04;99251.50;3533779;79;21624;-86
2022/09/14 21:26:32;;;;;;;8.83;5.75;;;;;;;13.65;75.11;99247.19;3521703;77;21268;-86
2022/09/14 21:31:23;;;;;;;8.40;5.70;;;;;;;13.62;75.23;99234.62;3571159;77;20982;-86
2022/09/14 21:36:22;;;;;;;7.67;6.60;;;;;;;13.61;75.32;99229.86;3551279;77;20969;-86
2022/09/14 21:41:14;;;;;;;6.05;5.05;;;;;;;13.59;75.52;99225.08;3502257;79;21021;-88
2022/09/14 21:46:06;;;;;;;6.50;5.75;;;;;;;13.60;75.63;99232.05;3560622;77;21460;-88
2022/09/14 21:51:23;;;;;;;10.53;6.53;;;;;;;13.57;75.74;99239.92;3527306;77;22125;-87
2022/09/14 21:56:16;;;;;;;8.43;5.80;;;;;;;13.59;75.86;99230.31;3521734;77;21688;-87
2022/09/14 22:01:08;;;;;;;8.28;6.30;;;;;;;13.59;76.02;99232.92;3544879;77;21573;-88
2022/09/14 22:06:05;;;;;;;11.45;8.90;;;;;;;13.60;76.17;99224.21;3523509;77;20931;-87
2022/09/14 22:11:06;;;;;;;9.18;8.23;;;;;;;13.62;76.26;99221.12;3588249;76;21034;-87
2022/09/14 22:16:07;;;;;;;10.25;7.62;;;;;;;13.61;76.45;99219.41;3612173;77;21079;-87
2022/09/14 22:20:59;;;;;;;11.83;9.20;;;;;;;13.61;76.45;99212.89;3554044;77;21005;-87
2022/09/14 22:25:51;;;;;;;16.02;10.55;;;;;;;13.62;76.53;99210.67;3547967;76;21136;-87
2022/09/14 22:30:50;;;;;;;10.82;8.00;;;;;;;13.60;76.70;99203.31;3559521;76;20972;-87
2022/09/14 22:35:53;;;;;;;10.98;8.53;;;;;;;13.62;76.87;99189.78;3538183;77;21451;-87
2022/09/14 22:40:44;;;;;;;11.85;8.85;;;;;;;13.63;76.90;99191.52;3615780;77;21150;-87
2022/09/14 22:45:35;;;;;;;11.53;8.38;;;;;;;13.56;76.94;99167.72;3626504;76;21026;-87
2022/09/14 22:50:26;;;;;;;11.40;8.35;;;;;;;13.59;77.21;99158.95;3579027;77;20962;-87
2022/09/14 22:55:18;;;;;;;12.05;10.72;;;;;;;13.58;77.31;99156.80;3583207;77;20910;-87
2022/09/14 23:00:12;;;;;;;11.55;9.50;;;;;;;13.57;77.40;99153.75;3607010;77;20916;-87
2022/09/14 23:05:03;;;;;;;14.03;10.08;;;;;;;13.58;77.51;99152.88;3615090;77;21183;-87
2022/09/14 23:09:55;;;;;;;10.53;8.93;;;;;;;13.57;77.58;99148.53;3599991;77;22258;-88
2022/09/14 23:14:46;;;;;;;8.83;7.92;;;;;;;13.57;77.62;99142.00;3570751;77;21036;-87
2022/09/14 23:19:37;;;;;;;12.35;7.83;;;;;;;13.56;77.80;99133.77;3619306;77;21052;-88
2022/09/14 23:24:28;;;;;;;9.65;8.65;;;;;;;13.57;77.81;99126.79;3495572;79;20935;-88
2022/09/14 23:29:19;;;;;;;11.10;9.27;;;;;;;13.57;77.95;99131.56;3540822;79;20966;-87